Time;durP1;ratioP1;P1;durP2;ratioP2;P2;SDS_P1;SDS_P2;PMS_P1;PMS_P2;Temp;Humidity;BMP_temperature;BMP_pressure;BME280_temperature;BME280_humidity;BME280_pressure;Samples;Min_cycle;Max_cycle;Signal;HPM_P1;HPM_P2
2023/08/27 00:01:37;;;;;;;;;;;19.50;99.90;;;;;;5053488;28;19921;-68
2023/08/27 00:04:06;;;;;;;;;;;19.50;99.90;;;;;;5054852;28;19932;-69
2023/08/27 00:06:34;;;;;;;;;;;19.50;99.90;;;;;;5054566;28;20445;-68
2023/08/27 00:09:02;;;;;;;;;;;19.60;99.90;;;;;;5054605;28;19921;-69
2023/08/27 00:11:31;;;;;;;;;;;19.40;99.90;;;;;;5052856;28;20334;-70
2023/08/27 00:13:59;;;;;;;;;;;19.50;99.90;;;;;;5054704;28;20326;-69
2023/08/27 00:16:27;;;;;;;;;;;19.80;99.90;;;;;;5054394;28;20350;-68
2023/08/27 00:18:54;;;;;;;;;;;19.90;99.90;;;;;;5054337;28;20023;-68
2023/08/27 00:21:22;;;;;;;;;;;19.90;99.90;;;;;;5054043;28;19921;-68
2023/08/27 00:23:50;;;;;;;;;;;19.90;99.90;;;;;;5054549;28;19927;-68
2023/08/27 00:26:18;;;;;;;;;;;19.80;99.90;;;;;;5053647;28;19974;-68
2023/08/27 00:28:47;;;;;;;;;;;19.70;99.90;;;;;;5053820;28;19920;-69
2023/08/27 00:31:15;;;;;;;;;;;19.80;99.90;;;;;;5053474;28;19921;-69
2023/08/27 00:33:43;;;;;;;;;;;19.80;99.90;;;;;;5053781;28;19956;-68
2023/08/27 00:36:10;;;;;;;;;;;19.80;99.90;;;;;;5054030;28;19921;-68
2023/08/27 00:38:38;;;;;;;;;;;19.80;99.90;;;;;;5053720;28;19924;-69
2023/08/27 00:41:06;;;;;;;;;;;19.80;99.90;;;;;;5052740;28;19928;-69
2023/08/27 00:43:34;;;;;;;;;;;19.70;99.90;;;;;;5053662;28;19924;-69
2023/08/27 00:46:05;;;;;;;;;;;19.80;99.90;;;;;;5053563;28;19974;-69
2023/08/27 00:48:33;;;;;;;;;;;19.80;99.90;;;;;;5053637;28;19920;-68
2023/08/27 00:51:01;;;;;;;;;;;19.70;99.90;;;;;;5053447;28;20276;-68
2023/08/27 00:53:29;;;;;;;;;;;19.70;99.90;;;;;;5053432;28;19925;-68
2023/08/27 00:55:57;;;;;;;;;;;19.80;99.90;;;;;;5051994;28;19924;-69
2023/08/27 00:58:24;;;;;;;;;;;19.60;99.90;;;;;;5049786;28;19999;-68
2023/08/27 01:00:52;;;;;;;;;;;19.70;99.90;;;;;;5052918;28;19921;-68
2023/08/27 01:03:21;;;;;;;;;;;19.60;99.90;;;;;;5053359;28;19921;-69
2023/08/27 01:05:57;;;;;;;;;;;19.70;99.90;;;;;;5045756;28;19924;-68
2023/08/27 01:08:27;;;;;;;;;;;19.70;99.90;;;;;;5053275;28;19978;-69
2023/08/27 01:10:58;;;;;;;;;;;19.60;99.90;;;;;;5052400;28;19940;-68
2023/08/27 01:13:28;;;;;;;;;;;19.60;99.90;;;;;;5037824;28;20330;-68
2023/08/27 01:15:59;;;;;;;;;;;19.70;99.90;;;;;;5046129;28;19935;-68
2023/08/27 01:18:28;;;;;;;;;;;19.70;99.90;;;;;;5054285;28;19964;-68
2023/08/27 01:20:57;;;;;;;;;;;19.70;99.90;;;;;;5044774;28;19932;-68
2023/08/27 01:23:26;;;;;;;;;;;19.60;99.90;;;;;;5052460;28;19966;-69
2023/08/27 01:25:55;;;;;;;;;;;19.60;99.90;;;;;;5049752;28;20383;-69
2023/08/27 01:28:26;;;;;;;;;;;19.60;99.90;;;;;;5049591;28;19927;-68
2023/08/27 01:30:57;;;;;;;;;;;19.60;99.90;;;;;;5053286;28;19928;-68
2023/08/27 01:33:26;;;;;;;;;;;19.60;99.90;;;;;;5053377;28;19921;-68
2023/08/27 01:35:54;;;;;;;;;;;19.50;99.90;;;;;;5053939;28;19921;-68
2023/08/27 01:38:22;;;;;;;;;;;19.50;99.90;;;;;;5053036;28;19982;-68
2023/08/27 01:40:52;;;;;;;;;;;19.60;99.90;;;;;;5051910;28;19937;-68
2023/08/27 01:43:20;;;;;;;;;;;19.40;99.90;;;;;;5053026;28;19924;-68
2023/08/27 01:45:47;;;;;;;;;;;19.20;99.90;;;;;;5052954;28;19967;-68
2023/08/27 01:48:15;;;;;;;;;;;19.20;99.90;;;;;;5053105;28;19927;-69
2023/08/27 01:50:43;;;;;;;;;;;19.10;99.90;;;;;;5052129;28;19925;-71
2023/08/27 01:53:11;;;;;;;;;;;19.10;99.90;;;;;;5052452;28;19925;-69
2023/08/27 01:55:38;;;;;;;;;;;19.40;99.90;;;;;;5051570;28;19929;-68
2023/08/27 01:58:07;;;;;;;;;;;19.70;99.90;;;;;;5052752;28;19924;-68
2023/08/27 02:00:35;;;;;;;;;;;19.60;99.90;;;;;;5052269;28;20453;-70
2023/08/27 02:03:05;;;;;;;;;;;19.60;99.90;;;;;;5053141;28;19921;-68
2023/08/27 02:05:33;;;;;;;;;;;19.70;99.90;;;;;;5053256;28;19921;-70
2023/08/27 02:08:00;;;;;;;;;;;19.70;99.90;;;;;;5052630;28;19927;-69
2023/08/27 02:10:28;;;;;;;;;;;19.70;99.90;;;;;;5045124;28;19921;-69
2023/08/27 02:12:56;;;;;;;;;;;19.70;99.90;;;;;;5052306;28;19956;-68
2023/08/27 02:15:26;;;;;;;;;;;19.70;99.90;;;;;;5052236;28;19960;-69
2023/08/27 02:17:54;;;;;;;;;;;19.70;99.90;;;;;;5052281;28;19925;-68
2023/08/27 02:20:22;;;;;;;;;;;19.60;99.90;;;;;;5052046;28;19921;-69
2023/08/27 02:22:50;;;;;;;;;;;19.60;99.90;;;;;;5051764;28;20395;-69
2023/08/27 02:25:18;;;;;;;;;;;19.60;99.90;;;;;;5051131;28;20375;-68
2023/08/27 02:27:46;;;;;;;;;;;19.50;99.90;;;;;;5051855;28;20349;-68
2023/08/27 02:30:15;;;;;;;;;;;19.60;99.90;;;;;;5051436;28;19924;-68
2023/08/27 02:32:44;;;;;;;;;;;19.60;99.90;;;;;;5051472;28;19920;-69
2023/08/27 02:35:12;;;;;;;;;;;19.60;99.90;;;;;;5051674;28;19920;-70
2023/08/27 02:37:40;;;;;;;;;;;19.60;99.90;;;;;;5051515;28;19924;-70
2023/08/27 02:40:08;;;;;;;;;;;19.70;99.90;;;;;;5050745;28;19925;-70
2023/08/27 02:42:37;;;;;;;;;;;19.60;99.90;;;;;;5048161;28;20346;-72
2023/08/27 02:45:05;;;;;;;;;;;19.50;99.90;;;;;;5051632;28;19925;-69
2023/08/27 02:47:33;;;;;;;;;;;19.50;99.90;;;;;;5051572;28;20303;-69
2023/08/27 02:50:03;;;;;;;;;;;19.50;99.90;;;;;;5051482;28;19920;-70
2023/08/27 02:52:30;;;;;;;;;;;19.50;99.90;;;;;;5051144;28;20315;-70
2023/08/27 02:54:58;;;;;;;;;;;19.50;99.90;;;;;;5051008;28;20372;-71
2023/08/27 02:57:26;;;;;;;;;;;19.40;99.90;;;;;;5046458;28;20360;-69
2023/08/27 02:59:54;;;;;;;;;;;19.40;99.90;;;;;;5051302;28;19920;-68
2023/08/27 03:02:21;;;;;;;;;;;19.40;99.90;;;;;;5050953;28;19975;-69
2023/08/27 03:04:49;;;;;;;;;;;19.50;99.90;;;;;;5051265;28;19921;-69
2023/08/27 03:07:18;;;;;;;;;;;19.50;99.90;;;;;;5051928;28;20338;-70
2023/08/27 03:09:46;;;;;;;;;;;19.60;99.90;;;;;;5051352;28;19942;-69
2023/08/27 03:12:17;;;;;;;;;;;19.50;99.90;;;;;;5050810;28;20454;-70
2023/08/27 03:14:45;;;;;;;;;;;19.50;99.90;;;;;;5051541;28;19966;-69
2023/08/27 03:17:12;;;;;;;;;;;19.50;99.90;;;;;;5052003;28;19920;-68
2023/08/27 03:19:40;;;;;;;;;;;19.40;99.90;;;;;;5051324;28;19928;-69
2023/08/27 03:22:08;;;;;;;;;;;19.30;99.90;;;;;;5051304;28;19927;-68
2023/08/27 03:24:37;;;;;;;;;;;19.40;99.90;;;;;;5051345;28;19927;-69
2023/08/27 03:27:07;;;;;;;;;;;19.40;99.90;;;;;;5043534;28;19921;-68
2023/08/27 03:29:34;;;;;;;;;;;19.40;99.90;;;;;;5051176;28;19920;-69
2023/08/27 03:32:02;;;;;;;;;;;19.50;99.90;;;;;;5050466;28;19925;-69
2023/08/27 03:34:30;;;;;;;;;;;19.40;99.90;;;;;;5051507;28;19924;-68
2023/08/27 03:36:58;;;;;;;;;;;19.50;99.90;;;;;;5051142;28;19967;-68
2023/08/27 03:39:25;;;;;;;;;;;19.50;99.90;;;;;;5051223;28;20342;-69
2023/08/27 03:41:55;;;;;;;;;;;19.30;99.90;;;;;;5050016;28;19924;-69
2023/08/27 03:44:22;;;;;;;;;;;19.40;99.90;;;;;;5051849;28;19982;-69
2023/08/27 03:46:50;;;;;;;;;;;19.40;99.90;;;;;;5054360;28;20112;-68
2023/08/27 03:49:18;;;;;;;;;;;19.20;99.90;;;;;;5055606;28;19935;-69
2023/08/27 03:51:45;;;;;;;;;;;19.20;99.90;;;;;;5054388;28;20042;-69
2023/08/27 03:54:14;;;;;;;;;;;19.00;99.90;;;;;;5054768;28;19920;-68
2023/08/27 03:56:41;;;;;;;;;;;18.90;99.90;;;;;;5045663;28;20296;-69
2023/08/27 03:59:10;;;;;;;;;;;18.90;99.90;;;;;;5046469;28;19929;-69
2023/08/27 04:01:38;;;;;;;;;;;19.10;99.90;;;;;;5054242;28;20387;-66
2023/08/27 04:04:06;;;;;;;;;;;18.90;99.90;;;;;;5054501;28;19944;-68
2023/08/27 04:06:34;;;;;;;;;;;18.90;99.90;;;;;;5054560;28;20011;-70
2023/08/27 04:09:02;;;;;;;;;;;18.90;99.90;;;;;;5054402;28;19921;-70
2023/08/27 04:11:30;;;;;;;;;;;19.10;99.90;;;;;;5054064;28;19958;-70
2023/08/27 04:13:58;;;;;;;;;;;19.10;99.90;;;;;;5052521;28;19929;-69
2023/08/27 04:16:27;;;;;;;;;;;19.30;99.90;;;;;;5054227;28;19931;-69
2023/08/27 04:18:55;;;;;;;;;;;19.30;99.90;;;;;;5054151;28;19974;-70
2023/08/27 04:21:23;;;;;;;;;;;19.20;99.90;;;;;;5054020;28;19956;-70
2023/08/27 04:23:51;;;;;;;;;;;19.00;99.90;;;;;;5053995;28;19982;-70
2023/08/27 04:26:19;;;;;;;;;;;19.10;99.90;;;;;;5054043;28;19971;-69
2023/08/27 04:28:47;;;;;;;;;;;19.20;99.90;;;;;;5054071;28;19974;-70
2023/08/27 04:31:16;;;;;;;;;;;19.20;99.90;;;;;;5052936;28;19921;-69
2023/08/27 04:33:45;;;;;;;;;;;19.10;99.90;;;;;;5052998;28;19927;-70
2023/08/27 04:36:13;;;;;;;;;;;19.20;99.90;;;;;;5053915;28;19927;-70
2023/08/27 04:38:40;;;;;;;;;;;19.20;99.90;;;;;;5053826;28;19921;-70
2023/08/27 04:41:08;;;;;;;;;;;19.10;99.90;;;;;;5053493;28;19921;-70
2023/08/27 04:43:36;;;;;;;;;;;18.90;99.90;;;;;;5053670;28;19928;-70
2023/08/27 04:46:04;;;;;;;;;;;18.90;99.90;;;;;;5053644;28;19925;-70
2023/08/27 04:48:32;;;;;;;;;;;19.00;99.90;;;;;;5053260;28;19928;-69
2023/08/27 04:51:02;;;;;;;;;;;18.90;99.90;;;;;;5054028;28;19982;-70
2023/08/27 04:53:30;;;;;;;;;;;19.00;99.90;;;;;;5051059;28;19921;-69
2023/08/27 04:55:58;;;;;;;;;;;19.20;99.90;;;;;;5054798;28;19920;-68
2023/08/27 04:58:50;;;;;;;;;;;19.10;99.90;;;;;;5053434;28;20313;-69
2023/08/27 05:01:18;;;;;;;;;;;19.10;99.90;;;;;;5051812;28;19921;-68
2023/08/27 05:03:46;;;;;;;;;;;19.10;99.90;;;;;;5054189;28;19928;-69
2023/08/27 05:06:15;;;;;;;;;;;19.30;99.90;;;;;;5049117;28;19921;-70
2023/08/27 05:08:43;;;;;;;;;;;19.50;99.90;;;;;;5046004;28;19921;-69
2023/08/27 05:11:10;;;;;;;;;;;19.50;99.90;;;;;;5044341;28;19921;-69
2023/08/27 05:13:38;;;;;;;;;;;19.10;99.90;;;;;;5044044;28;19929;-70
2023/08/27 05:16:06;;;;;;;;;;;19.20;99.90;;;;;;5048554;28;19921;-69
2023/08/27 05:18:34;;;;;;;;;;;19.30;99.90;;;;;;5052211;28;19954;-70
2023/08/27 05:21:02;;;;;;;;;;;19.20;99.90;;;;;;5052038;28;19932;-68
2023/08/27 05:23:33;;;;;;;;;;;19.20;99.90;;;;;;5049249;28;22538;-69
2023/08/27 05:26:01;;;;;;;;;;;19.10;99.90;;;;;;5050851;28;21241;-70
2023/08/27 05:28:29;;;;;;;;;;;18.90;99.90;;;;;;5051868;28;19947;-69
2023/08/27 05:30:57;;;;;;;;;;;19.10;99.90;;;;;;5047999;28;20408;-70
2023/08/27 05:33:24;;;;;;;;;;;19.10;99.90;;;;;;5051291;28;19960;-70
2023/08/27 05:35:54;;;;;;;;;;;19.20;99.90;;;;;;5052589;28;19932;-68
2023/08/27 05:38:22;;;;;;;;;;;19.20;99.90;;;;;;5050164;28;20003;-71
2023/08/27 05:40:52;;;;;;;;;;;19.30;99.90;;;;;;5043162;28;19925;-69
2023/08/27 05:43:20;;;;;;;;;;;19.40;99.90;;;;;;5043148;28;20396;-70
2023/08/27 05:45:48;;;;;;;;;;;19.40;99.90;;;;;;5050497;28;20723;-69
2023/08/27 05:48:15;;;;;;;;;;;19.70;99.90;;;;;;5049102;28;20600;-70
2023/08/27 05:50:44;;;;;;;;;;;19.90;99.90;;;;;;5049420;28;19925;-67
2023/08/27 05:53:14;;;;;;;;;;;19.90;99.90;;;;;;5050258;28;20347;-70
2023/08/27 05:55:43;;;;;;;;;;;20.00;99.90;;;;;;5040865;28;20438;-70
2023/08/27 05:58:12;;;;;;;;;;;20.00;99.90;;;;;;5045156;28;19979;-69
2023/08/27 06:00:40;;;;;;;;;;;20.10;99.90;;;;;;5050955;28;20343;-69
2023/08/27 06:03:08;;;;;;;;;;;20.10;99.90;;;;;;5052221;28;19986;-67
2023/08/27 06:05:36;;;;;;;;;;;20.20;99.90;;;;;;5052698;28;19970;-66
2023/08/27 06:08:04;;;;;;;;;;;20.10;99.90;;;;;;5036683;28;19971;-69
2023/08/27 06:10:32;;;;;;;;;;;20.00;99.90;;;;;;5052236;28;19929;-69
2023/08/27 06:12:59;;;;;;;;;;;19.90;99.90;;;;;;5051693;28;19932;-69
2023/08/27 06:15:34;;;;;;;;;;;20.00;99.90;;;;;;5042673;28;20010;-70
2023/08/27 06:18:03;;;;;;;;;;;20.20;99.90;;;;;;5039506;28;19929;-71
2023/08/27 06:20:31;;;;;;;;;;;20.20;99.90;;;;;;5038867;28;20422;-70
2023/08/27 06:22:59;;;;;;;;;;;20.50;99.90;;;;;;5039364;28;19932;-72
2023/08/27 06:25:27;;;;;;;;;;;20.50;99.90;;;;;;5036757;28;19933;-71
2023/08/27 06:27:55;;;;;;;;;;;20.50;99.90;;;;;;5039383;28;19966;-68
2023/08/27 06:30:23;;;;;;;;;;;20.50;99.90;;;;;;5039120;28;19935;-70
2023/08/27 06:32:53;;;;;;;;;;;20.40;99.90;;;;;;5038661;28;19940;-71
2023/08/27 06:35:21;;;;;;;;;;;20.50;99.90;;;;;;5036252;28;20597;-69
2023/08/27 06:37:49;;;;;;;;;;;20.60;99.90;;;;;;5036922;28;20426;-68
2023/08/27 06:40:17;;;;;;;;;;;20.60;99.90;;;;;;5040056;28;19933;-68
2023/08/27 06:42:45;;;;;;;;;;;20.70;99.90;;;;;;5039966;28;20411;-69
2023/08/27 06:45:13;;;;;;;;;;;20.50;99.90;;;;;;5035553;28;20442;-73
2023/08/27 06:47:41;;;;;;;;;;;20.60;99.90;;;;;;5036406;28;19979;-70
2023/08/27 06:50:10;;;;;;;;;;;20.60;99.90;;;;;;5039341;28;19928;-73
2023/08/27 06:52:38;;;;;;;;;;;20.60;99.90;;;;;;5039747;28;19924;-71
2023/08/27 06:55:06;;;;;;;;;;;20.60;99.90;;;;;;5036357;28;19933;-69
2023/08/27 06:57:34;;;;;;;;;;;20.70;99.90;;;;;;5038058;28;20380;-69
2023/08/27 07:00:02;;;;;;;;;;;20.40;99.90;;;;;;5037339;28;19928;-73
2023/08/27 07:02:30;;;;;;;;;;;20.50;99.90;;;;;;5035209;28;19936;-72
2023/08/27 07:04:58;;;;;;;;;;;20.50;99.90;;;;;;5035186;28;19932;-71
2023/08/27 07:07:27;;;;;;;;;;;20.60;99.90;;;;;;5037477;28;20400;-71
2023/08/27 07:09:55;;;;;;;;;;;20.60;99.90;;;;;;5037267;28;19959;-69
2023/08/27 07:12:23;;;;;;;;;;;20.80;99.90;;;;;;5036705;28;19967;-69
2023/08/27 07:14:50;;;;;;;;;;;21.00;99.90;;;;;;5032769;28;19929;-73
2023/08/27 07:17:18;;;;;;;;;;;21.00;99.90;;;;;;5037176;28;19929;-70
2023/08/27 07:19:46;;;;;;;;;;;20.90;99.90;;;;;;5035686;28;20794;-69
2023/08/27 07:22:14;;;;;;;;;;;20.80;99.90;;;;;;5039080;28;19940;-73
2023/08/27 07:24:43;;;;;;;;;;;20.70;99.90;;;;;;5038744;28;19933;-69
2023/08/27 07:27:11;;;;;;;;;;;20.60;99.90;;;;;;5040794;28;19933;-71
2023/08/27 07:29:39;;;;;;;;;;;20.70;99.90;;;;;;5039682;28;19929;-72
2023/08/27 07:32:08;;;;;;;;;;;20.80;99.90;;;;;;5039857;28;19925;-70
2023/08/27 07:34:35;;;;;;;;;;;20.70;99.90;;;;;;5037498;28;19936;-71
2023/08/27 07:37:04;;;;;;;;;;;20.70;99.90;;;;;;5039157;28;20045;-71
2023/08/27 07:39:33;;;;;;;;;;;20.70;99.90;;;;;;5040167;28;20121;-72
2023/08/27 07:42:03;;;;;;;;;;;20.60;99.90;;;;;;5041028;28;19933;-69
2023/08/27 07:44:30;;;;;;;;;;;20.60;99.90;;;;;;5038680;28;19932;-69
2023/08/27 07:46:58;;;;;;;;;;;20.70;99.90;;;;;;5041896;28;19933;-69
2023/08/27 07:49:26;;;;;;;;;;;20.80;99.90;;;;;;5041586;28;19932;-72
2023/08/27 07:51:54;;;;;;;;;;;20.80;99.90;;;;;;5041903;28;19928;-72
2023/08/27 07:54:22;;;;;;;;;;;21.00;99.90;;;;;;5038707;28;19978;-69
2023/08/27 07:56:50;;;;;;;;;;;21.10;99.90;;;;;;4980927;28;1721628;-69
2023/08/27 07:59:19;;;;;;;;;;;21.10;99.90;;;;;;5042063;28;19933;-72
2023/08/27 08:01:47;;;;;;;;;;;21.20;99.90;;;;;;5041125;28;19936;-68
2023/08/27 08:04:15;;;;;;;;;;;21.20;99.90;;;;;;5038376;28;19936;-70
2023/08/27 08:06:43;;;;;;;;;;;21.40;99.90;;;;;;5039844;28;19929;-73
2023/08/27 08:09:10;;;;;;;;;;;21.30;99.90;;;;;;5040647;28;19940;-73
2023/08/27 08:11:38;;;;;;;;;;;21.40;99.90;;;;;;5040602;28;19928;-72
2023/08/27 08:14:06;;;;;;;;;;;21.30;99.90;;;;;;5038958;28;19932;-69
2023/08/27 08:16:35;;;;;;;;;;;21.30;99.90;;;;;;5040181;28;19933;-69
2023/08/27 08:19:03;;;;;;;;;;;21.30;99.90;;;;;;5041827;28;20834;-71
2023/08/27 08:21:31;;;;;;;;;;;21.20;99.90;;;;;;5040908;28;19933;-71
2023/08/27 08:23:58;;;;;;;;;;;21.20;99.90;;;;;;5039119;28;19937;-72
2023/08/27 08:26:26;;;;;;;;;;;21.30;99.90;;;;;;5040865;28;19932;-72
2023/08/27 08:28:54;;;;;;;;;;;21.50;99.90;;;;;;5042514;28;19935;-70
2023/08/27 08:31:22;;;;;;;;;;;21.80;99.90;;;;;;5039503;28;19933;-70
2023/08/27 08:33:52;;;;;;;;;;;21.80;99.90;;;;;;5040756;28;20021;-74
2023/08/27 08:36:20;;;;;;;;;;;21.80;99.90;;;;;;5040784;28;19932;-71
2023/08/27 08:38:47;;;;;;;;;;;21.80;99.90;;;;;;5041438;28;19955;-70
2023/08/27 08:41:18;;;;;;;;;;;21.80;99.90;;;;;;5041010;28;20535;-69
2023/08/27 08:43:48;;;;;;;;;;;21.60;99.90;;;;;;5041362;28;19929;-68
2023/08/27 08:46:18;;;;;;;;;;;21.60;99.90;;;;;;5038995;28;19951;-68
2023/08/27 08:48:50;;;;;;;;;;;21.80;99.90;;;;;;5040552;28;20350;-67
2023/08/27 08:51:23;;;;;;;;;;;21.90;99.90;;;;;;5039660;28;20670;-67
2023/08/27 08:53:51;;;;;;;;;;;21.60;99.90;;;;;;5040040;28;19933;-70
2023/08/27 08:56:21;;;;;;;;;;;21.40;99.90;;;;;;5040009;28;19983;-67
2023/08/27 08:58:52;;;;;;;;;;;21.20;99.90;;;;;;5040110;28;19933;-67
2023/08/27 09:01:21;;;;;;;;;;;21.40;99.90;;;;;;5039679;28;19964;-67
2023/08/27 09:03:49;;;;;;;;;;;21.50;99.90;;;;;;5040789;28;19935;-67
2023/08/27 09:06:17;;;;;;;;;;;21.80;99.90;;;;;;5038617;28;19939;-67
2023/08/27 09:08:47;;;;;;;;;;;21.80;99.90;;;;;;5039306;28;19932;-68
2023/08/27 09:11:15;;;;;;;;;;;21.70;99.90;;;;;;5039706;28;19939;-68
2023/08/27 09:13:42;;;;;;;;;;;21.50;99.90;;;;;;5041737;28;20034;-67
2023/08/27 09:16:10;;;;;;;;;;;21.50;99.90;;;;;;5037840;28;19933;-69
2023/08/27 09:18:38;;;;;;;;;;;21.50;99.90;;;;;;5040456;28;19931;-68
2023/08/27 09:21:06;;;;;;;;;;;21.40;99.90;;;;;;5041561;28;19932;-68
2023/08/27 09:23:37;;;;;;;;;;;21.60;99.90;;;;;;5040081;28;19980;-70
2023/08/27 09:26:08;;;;;;;;;;;21.70;99.90;;;;;;5037296;28;19929;-68
2023/08/27 09:28:36;;;;;;;;;;;21.90;99.90;;;;;;5039547;28;19935;-68
2023/08/27 09:31:04;;;;;;;;;;;22.20;99.90;;;;;;5038675;28;19933;-69
2023/08/27 09:33:36;;;;;;;;;;;22.60;99.90;;;;;;5040356;28;20475;-70
2023/08/27 09:36:04;;;;;;;;;;;22.90;99.90;;;;;;5038683;28;19940;-68
2023/08/27 09:38:33;;;;;;;;;;;23.10;99.90;;;;;;5040185;28;19940;-68
2023/08/27 09:41:11;;;;;;;;;;;23.30;99.90;;;;;;5039870;28;19937;-68
2023/08/27 09:43:39;;;;;;;;;;;23.40;99.90;;;;;;5037662;28;19936;-68
2023/08/27 09:46:09;;;;;;;;;;;23.60;99.90;;;;;;5034959;28;19986;-68
2023/08/27 09:48:37;;;;;;;;;;;23.20;99.90;;;;;;5037174;28;19971;-68
2023/08/27 09:51:05;;;;;;;;;;;23.20;99.90;;;;;;5039039;28;19929;-69
2023/08/27 09:53:33;;;;;;;;;;;22.80;99.90;;;;;;5038189;28;20510;-68
2023/08/27 09:56:02;;;;;;;;;;;22.70;99.90;;;;;;5036643;28;19936;-69
2023/08/27 09:58:31;;;;;;;;;;;22.70;99.90;;;;;;5039286;28;20851;-69
2023/08/27 10:01:00;;;;;;;;;;;22.80;99.90;;;;;;5038222;28;19936;-71
2023/08/27 10:03:29;;;;;;;;;;;23.10;99.90;;;;;;5040068;28;19932;-68
2023/08/27 10:05:57;;;;;;;;;;;23.50;99.90;;;;;;5036339;28;20019;-69
2023/08/27 10:08:25;;;;;;;;;;;23.80;99.90;;;;;;5039443;28;19933;-68
2023/08/27 10:11:05;;;;;;;;;;;24.10;99.90;;;;;;5038861;28;19940;-68
2023/08/27 10:13:34;;;;;;;;;;;24.50;99.90;;;;;;5038080;28;19940;-68
2023/08/27 10:16:02;;;;;;;;;;;24.80;99.90;;;;;;5036824;28;19933;-68
2023/08/27 10:18:30;;;;;;;;;;;25.00;99.90;;;;;;5037733;28;19928;-68
2023/08/27 10:20:59;;;;;;;;;;;25.10;99.90;;;;;;5038198;28;19933;-68
2023/08/27 10:23:29;;;;;;;;;;;24.90;99.90;;;;;;5038501;28;19929;-68
2023/08/27 10:25:58;;;;;;;;;;;24.60;99.90;;;;;;5036808;28;19950;-69
2023/08/27 10:28:26;;;;;;;;;;;24.40;99.90;;;;;;5038315;28;19944;-68
2023/08/27 10:30:55;;;;;;;;;;;24.40;99.90;;;;;;5038063;28;19955;-68
2023/08/27 10:33:23;;;;;;;;;;;24.30;99.90;;;;;;5038470;28;20330;-68
2023/08/27 10:35:52;;;;;;;;;;;24.10;99.90;;;;;;5034418;28;19937;-68
2023/08/27 10:38:22;;;;;;;;;;;24.00;99.90;;;;;;5038423;28;19941;-68
2023/08/27 10:40:50;;;;;;;;;;;24.10;99.90;;;;;;5038663;28;20864;-68
2023/08/27 10:43:19;;;;;;;;;;;24.30;99.90;;;;;;5038222;28;20395;-68
2023/08/27 10:45:48;;;;;;;;;;;24.40;99.90;;;;;;5034758;28;19994;-68
2023/08/27 10:48:30;;;;;;;;;;;24.50;99.90;;;;;;5037833;28;20375;-68
2023/08/27 10:51:11;;;;;;;;;;;24.80;99.90;;;;;;5038188;28;19983;-69
2023/08/27 10:53:53;;;;;;;;;;;25.00;99.90;;;;;;5040002;28;19925;-69
2023/08/27 10:56:28;;;;;;;;;;;24.80;99.90;;;;;;5035615;28;20330;-69
2023/08/27 10:58:59;;;;;;;;;;;24.90;99.90;;;;;;5039108;28;20438;-68
2023/08/27 11:01:27;;;;;;;;;;;25.00;99.90;;;;;;5038148;28;19936;-68
2023/08/27 11:03:57;;;;;;;;;;;25.10;99.90;;;;;;5036262;28;20906;-68
2023/08/27 11:06:37;;;;;;;;;;;25.20;99.90;;;;;;5037391;28;20011;-68
2023/08/27 11:09:15;;;;;;;;;;;25.20;99.90;;;;;;5036877;28;19933;-68
2023/08/27 11:11:51;;;;;;;;;;;25.00;99.90;;;;;;5038421;28;20022;-68
2023/08/27 11:14:19;;;;;;;;;;;24.60;99.90;;;;;;5036401;28;19929;-68
2023/08/27 11:16:49;;;;;;;;;;;23.90;99.90;;;;;;5035170;28;19932;-68
2023/08/27 11:19:29;;;;;;;;;;;23.70;99.90;;;;;;5036863;28;20040;-68
2023/08/27 11:22:05;;;;;;;;;;;23.60;99.90;;;;;;5037950;28;19936;-68
2023/08/27 11:24:33;;;;;;;;;;;23.50;99.90;;;;;;5035600;28;19939;-69
2023/08/27 11:27:02;;;;;;;;;;;23.40;99.90;;;;;;5035996;28;20816;-67
2023/08/27 11:29:30;;;;;;;;;;;23.00;99.90;;;;;;5036255;28;20082;-68
2023/08/27 11:32:00;;;;;;;;;;;23.00;99.90;;;;;;5038589;28;19994;-68
2023/08/27 11:34:35;;;;;;;;;;;23.00;99.90;;;;;;5037038;28;19994;-68
2023/08/27 11:37:04;;;;;;;;;;;23.10;99.90;;;;;;5036920;28;19932;-68
2023/08/27 11:39:33;;;;;;;;;;;23.20;99.90;;;;;;5037516;28;19932;-68
2023/08/27 11:42:01;;;;;;;;;;;23.20;99.90;;;;;;5037946;28;19933;-69
2023/08/27 11:44:28;;;;;;;;;;;23.40;99.90;;;;;;5036012;28;19933;-68
2023/08/27 11:47:03;;;;;;;;;;;23.40;99.90;;;;;;5038838;28;19936;-69
2023/08/27 11:49:31;;;;;;;;;;;23.40;99.90;;;;;;5037617;28;20780;-68
2023/08/27 11:52:01;;;;;;;;;;;23.40;99.90;;;;;;5037963;28;20048;-68
2023/08/27 11:54:30;;;;;;;;;;;23.40;99.90;;;;;;5036354;28;19933;-68
2023/08/27 11:56:58;;;;;;;;;;;23.50;99.90;;;;;;5038067;28;19933;-67
2023/08/27 11:59:28;;;;;;;;;;;23.40;99.90;;;;;;5037073;28;20311;-68
2023/08/27 12:01:56;;;;;;;;;;;23.30;99.90;;;;;;5038019;28;19933;-68
2023/08/27 12:04:26;;;;;;;;;;;23.20;99.90;;;;;;5036412;28;20307;-67
2023/08/27 12:06:56;;;;;;;;;;;23.20;99.90;;;;;;5038375;28;20578;-68
2023/08/27 12:09:27;;;;;;;;;;;23.30;99.90;;;;;;5041169;28;19951;-65
2023/08/27 12:11:55;;;;;;;;;;;23.40;99.90;;;;;;5040862;28;19939;-67
2023/08/27 12:14:24;;;;;;;;;;;23.20;99.90;;;;;;5040812;28;19933;-69
2023/08/27 12:16:53;;;;;;;;;;;23.00;99.90;;;;;;5041373;28;19939;-69
2023/08/27 12:19:21;;;;;;;;;;;22.90;99.90;;;;;;5041440;28;20454;-69
2023/08/27 12:21:51;;;;;;;;;;;22.90;99.90;;;;;;5041815;28;19955;-67
2023/08/27 12:24:30;;;;;;;;;;;22.80;99.90;;;;;;5039365;28;19935;-68
2023/08/27 12:26:59;;;;;;;;;;;22.70;99.90;;;;;;5041077;28;19933;-68
2023/08/27 12:29:29;;;;;;;;;;;22.60;99.90;;;;;;5038416;28;20239;-67
2023/08/27 12:31:58;;;;;;;;;;;22.30;99.90;;;;;;5042163;28;20704;-68
2023/08/27 12:34:32;;;;;;;;;;;22.00;99.90;;;;;;5039920;28;19932;-68
2023/08/27 12:37:00;;;;;;;;;;;21.50;99.90;;;;;;5041834;28;19929;-68
2023/08/27 12:39:28;;;;;;;;;;;20.80;99.90;;;;;;5039691;28;19937;-69
2023/08/27 12:41:57;;;;;;;;;;;20.40;99.90;;;;;;5040456;28;20382;-68
2023/08/27 12:44:24;;;;;;;;;;;20.30;99.90;;;;;;5038450;28;20311;-68
2023/08/27 12:46:52;;;;;;;;;;;20.10;99.90;;;;;;5041832;28;20206;-68
2023/08/27 12:49:20;;;;;;;;;;;19.90;99.90;;;;;;5040595;28;19937;-68
2023/08/27 12:51:48;;;;;;;;;;;19.80;99.90;;;;;;5037780;28;19948;-68
2023/08/27 12:54:17;;;;;;;;;;;19.90;99.90;;;;;;5038035;28;19935;-67
2023/08/27 12:56:45;;;;;;;;;;;19.90;99.90;;;;;;5039056;28;19983;-68
2023/08/27 12:59:14;;;;;;;;;;;19.80;99.90;;;;;;5040625;28;20705;-67
2023/08/27 13:01:42;;;;;;;;;;;19.70;99.90;;;;;;5038147;28;20545;-69
2023/08/27 13:04:10;;;;;;;;;;;19.70;99.90;;;;;;5039113;28;19939;-67
2023/08/27 13:06:38;;;;;;;;;;;19.90;99.90;;;;;;5037976;28;19937;-67
2023/08/27 13:09:07;;;;;;;;;;;20.10;99.90;;;;;;5038927;28;20403;-67
2023/08/27 13:11:35;;;;;;;;;;;20.50;99.90;;;;;;5038127;28;19933;-67
2023/08/27 13:14:03;;;;;;;;;;;20.90;99.90;;;;;;5038258;28;19933;-67
2023/08/27 13:16:36;;;;;;;;;;;21.20;99.90;;;;;;5038766;28;19933;-67
2023/08/27 13:19:04;;;;;;;;;;;21.50;99.90;;;;;;5037839;28;19948;-67
2023/08/27 13:21:32;;;;;;;;;;;21.80;99.90;;;;;;5039822;28;20845;-66
2023/08/27 13:24:04;;;;;;;;;;;21.90;99.90;;;;;;5038552;28;20774;-66
2023/08/27 13:26:32;;;;;;;;;;;22.00;99.90;;;;;;5020196;28;20411;-66
2023/08/27 13:29:00;;;;;;;;;;;22.00;99.90;;;;;;5039754;28;20380;-67
2023/08/27 13:31:28;;;;;;;;;;;22.20;99.90;;;;;;5022152;28;19932;-66
2023/08/27 13:33:57;;;;;;;;;;;22.30;99.90;;;;;;5039491;28;19933;-66
2023/08/27 13:36:25;;;;;;;;;;;22.30;99.90;;;;;;5038286;28;19933;-67
2023/08/27 13:38:53;;;;;;;;;;;22.30;99.90;;;;;;5039153;28;19933;-67
2023/08/27 13:41:21;;;;;;;;;;;22.10;99.90;;;;;;5037635;28;20010;-66
2023/08/27 13:43:49;;;;;;;;;;;22.10;99.90;;;;;;5040401;28;19939;-66
2023/08/27 13:46:17;;;;;;;;;;;21.90;99.90;;;;;;5038675;28;19933;-66
2023/08/27 13:48:45;;;;;;;;;;;21.90;99.90;;;;;;5037807;28;19932;-67
2023/08/27 13:51:15;;;;;;;;;;;21.90;99.90;;;;;;5039563;28;20039;-66
2023/08/27 13:53:43;;;;;;;;;;;21.90;99.90;;;;;;5037449;28;19931;-68
2023/08/27 13:56:11;;;;;;;;;;;21.60;99.90;;;;;;5037781;28;19928;-67
2023/08/27 13:58:41;;;;;;;;;;;21.50;99.90;;;;;;5038240;28;19943;-67
2023/08/27 14:01:09;;;;;;;;;;;21.20;99.90;;;;;;5027849;28;19933;-67
2023/08/27 14:03:37;;;;;;;;;;;20.90;99.90;;;;;;5036554;28;20547;-67
2023/08/27 14:06:05;;;;;;;;;;;20.80;99.90;;;;;;5037981;28;20501;-67
2023/08/27 14:08:34;;;;;;;;;;;20.60;99.90;;;;;;5040317;28;19932;-67
2023/08/27 14:11:03;;;;;;;;;;;20.70;99.90;;;;;;5039904;28;19933;-67
2023/08/27 14:13:31;;;;;;;;;;;20.70;99.90;;;;;;5037075;28;19940;-67
2023/08/27 14:15:59;;;;;;;;;;;20.70;99.90;;;;;;5037517;28;19966;-70
2023/08/27 14:18:27;;;;;;;;;;;20.70;99.90;;;;;;5038853;28;19932;-67
2023/08/27 14:20:55;;;;;;;;;;;20.80;99.90;;;;;;5048451;28;19931;-69
2023/08/27 14:23:23;;;;;;;;;;;20.80;99.90;;;;;;5044785;28;20312;-68
2023/08/27 14:25:52;;;;;;;;;;;20.80;99.90;;;;;;5044988;28;19941;-68